This is the latest recevied weather packets stored in our database for station/object SQ6RR-12. If no packets are shown the sender has not sent any weather packets the latest 10 day(s).
| Time | Temp. | Humidity | Pressure | Rain* | Wind** | Luminosity | Snow |
|---|---|---|---|---|---|---|---|
| 1778066334 | 21.67° C | 66% | 1007.7 hPa | 0 mm | - | - | - |
| 1778066056 | 21.11° C | 72% | 1007.8 hPa | 0 mm | - | - | - |
| 1778065794 | 20.56° C | 72% | 1008 hPa | 0 mm | - | - | - |
| 1778065536 | 20.56° C | 73% | 1008 hPa | 0 mm | - | - | - |
| 1778065282 | 20° C | 76% | 1008 hPa | 0 mm | - | - | - |
| 1778065007 | 20° C | 76% | 1008 hPa | 0 mm | - | - | - |
| 1778064753 | 19.44° C | 81% | 1008 hPa | 0 mm | - | - | - |
| 1778064501 | 19.44° C | 82% | 1008.1 hPa | 0 mm | - | - | - |
| 1778064225 | 19.44° C | 78% | 1008 hPa | 0 mm | - | - | - |
| 1778063940 | 19.44° C | 79% | 1008.1 hPa | 0 mm | - | - | - |
| 1778063662 | 19.44° C | 78% | 1008 hPa | 0 mm | - | - | - |
| 1778063382 | 19.44° C | 79% | 1008 hPa | 0 mm | - | - | - |
| 1778063103 | 18.89° C | 85% | 1008.2 hPa | 0 mm | - | - | - |
| 1778062863 | 17.78° C | 90% | 1008.2 hPa | 0 mm | - | - | - |
| 1778062602 | 17.78° C | 92% | 1008.2 hPa | 0 mm | - | - | - |
| 1778062325 | 17.78° C | 89% | 1008.2 hPa | 0 mm | - | - | - |
| 1778062078 | 17.78° C | 88% | 1008.3 hPa | 0 mm | - | - | - |
| 1778061812 | 18.33° C | 86% | 1008.2 hPa | 0 mm | - | - | - |
| 1778061534 | 18.89° C | 84% | 1008.2 hPa | 0 mm | - | - | - |
| 1778061263 | 18.89° C | 86% | 1008.2 hPa | 0 mm | - | - | - |
| 1778060983 | 18.33° C | 92% | 1007.9 hPa | 0 mm | - | - | - |
| 1778060721 | 18.89° C | 87% | 1008.1 hPa | 0 mm | - | - | - |
| 1778060446 | 18.89° C | 84% | 1008.2 hPa | 0 mm | - | - | - |
| 1778060184 | 18.89° C | 87% | 1008.1 hPa | 0 mm | - | - | - |
| 1778059937 | 18.89° C | 90% | 1008.2 hPa | 0 mm | - | - | - |
* Rain latest hour (hover to see other rain measurements)
** Current wind speed in m/s (hover to see current wind gust speed)